New Diana, Texas
Current Conditions -  °F | °C
As of 9:53 PM on Monday 22 Dec 2014 (Local Time) from KGGG Reporting Station
Clear Clear  
Wind Chill: 56°   Ceiling: Unl
Heat Index: 56°   Visibility: 10mi
Dew Point: 46°   Wind: 5mph
Humidity: 69%   Direction: 300°WNW
Pressure: 29.67"   Gusts: NA
Location:  32.6998°N, 94.6696°W
Report Text: KGGG 230353Z AUTO 30004KT 10SM CLR 13/08 A2967 RMK AO2 SLP047 T01330078
Loading
Personal Weather Stations






























Interactive Weather Map New forecast layout! Learn more

10-Day Weather Forecast

Advertisements
Track Severe Weather on mobile